Time;durP1;ratioP1;P1;durP2;ratioP2;P2;SDS_P1;SDS_P2;PMS_P1;PMS_P2;Temp;Humidity;BMP_temperature;BMP_pressure;BME280_temperature;BME280_humidity;BME280_pressure;Samples;Min_cycle;Max_cycle;Signal;HPM_P1;HPM_P2
2023/06/06 00:02:32;;;;;;;9.20;8.27;;;;;;;14.73;100.00;97813.56;6055054;29;20300;-48
2023/06/06 00:05:35;;;;;;;7.90;7.20;;;;;;;14.74;100.00;97812.53;6053450;29;20456;-49
2023/06/06 00:08:37;;;;;;;10.33;9.13;;;;;;;14.70;100.00;97807.69;6052892;29;20360;-50
2023/06/06 00:11:40;;;;;;;10.87;9.13;;;;;;;14.69;100.00;97806.06;6057684;29;20320;-50
2023/06/06 00:14:46;;;;;;;18.17;12.57;;;;;;;14.73;100.00;97810.88;6059470;29;20243;-50
2023/06/06 00:17:48;;;;;;;11.33;10.20;;;;;;;14.69;100.00;97803.41;6051584;29;20237;-48
2023/06/06 00:20:51;;;;;;;13.77;12.07;;;;;;;14.68;100.00;97809.84;6058160;29;20251;-51
2023/06/06 00:23:55;;;;;;;16.50;13.87;;;;;;;14.67;100.00;97805.50;6053783;29;20318;-50
2023/06/06 00:26:57;;;;;;;15.37;13.23;;;;;;;14.65;100.00;97817.59;6051794;29;20241;-48
2023/06/06 00:29:59;;;;;;;13.37;10.63;;;;;;;14.64;100.00;97808.75;6053377;29;20589;-52
2023/06/06 00:33:01;;;;;;;12.97;11.77;;;;;;;14.63;100.00;97807.13;6066409;29;20245;-46
2023/06/06 00:36:04;;;;;;;14.27;12.23;;;;;;;14.57;100.00;97800.13;6058565;29;20607;-49
2023/06/06 00:39:07;;;;;;;11.23;10.13;;;;;;;14.63;100.00;97801.78;6045594;29;20327;-50
2023/06/06 00:42:09;;;;;;;11.87;10.67;;;;;;;14.63;100.00;97799.09;6055998;29;20794;-49
2023/06/06 00:45:12;;;;;;;12.00;10.80;;;;;;;14.65;100.00;97801.50;6053904;29;20257;-47
2023/06/06 00:48:16;;;;;;;13.87;11.60;;;;;;;14.64;100.00;97797.22;6050619;29;20216;-49
2023/06/06 00:51:18;;;;;;;12.40;11.07;;;;;;;14.64;100.00;97797.22;6050558;29;20221;-49
2023/06/06 00:54:21;;;;;;;11.47;10.23;;;;;;;14.65;100.00;97793.47;6050797;29;20240;-51
2023/06/06 00:57:26;;;;;;;12.03;10.63;;;;;;;14.64;100.00;97794.53;6059721;29;20232;-49
2023/06/06 01:00:32;;;;;;;12.93;11.63;;;;;;;14.64;100.00;97787.28;6055056;29;20303;-51
2023/06/06 01:03:34;;;;;;;13.60;11.90;;;;;;;14.65;100.00;97783.53;6050902;29;20233;-48
2023/06/06 01:06:37;;;;;;;12.27;10.87;;;;;;;14.65;100.00;97782.72;6043323;29;20254;-49
2023/06/06 01:09:40;;;;;;;11.43;10.23;;;;;;;14.49;100.00;97768.50;6050521;29;20246;-49
2023/06/06 01:12:53;;;;;;;12.67;10.67;;;;;;;14.64;100.00;97781.94;6053848;29;20243;-48
2023/06/06 01:16:01;;;;;;;14.50;13.00;;;;;;;14.55;100.00;97775.47;6050028;29;20236;-48
2023/06/06 01:19:05;;;;;;;15.80;13.80;;;;;;;14.37;100.00;97743.75;6051929;29;20353;-48
2023/06/06 01:22:12;;;;;;;13.50;12.10;;;;;;;14.59;100.00;97781.94;6050660;29;20593;-48
2023/06/06 01:25:21;;;;;;;15.33;12.57;;;;;;;14.43;100.00;97758.78;6052392;29;20365;-47
2023/06/06 01:28:27;;;;;;;13.87;11.97;;;;;;;14.41;100.00;97767.09;6051555;29;20779;-50
2023/06/06 01:31:38;;;;;;;13.33;12.03;;;;;;;14.57;100.00;97780.56;6050992;29;20283;-50
2023/06/06 01:34:54;;;;;;;14.53;12.43;;;;;;;14.54;100.00;97784.59;6056307;29;20232;-55
2023/06/06 01:38:07;;;;;;;15.13;13.43;;;;;;;14.49;100.00;97783.78;6050635;29;20241;-49
2023/06/06 01:41:14;;;;;;;16.90;15.00;;;;;;;14.38;100.00;97754.25;6051795;29;20237;-53
2023/06/06 01:44:18;;;;;;;15.13;13.53;;;;;;;14.52;100.00;97780.56;6056741;29;20592;-50
2023/06/06 01:47:21;;;;;;;14.70;12.87;;;;;;;14.47;100.00;97770.59;6054686;29;20252;-51
2023/06/06 01:50:24;;;;;;;17.33;14.43;;;;;;;14.46;100.00;97777.03;6052126;29;20243;-47
2023/06/06 01:53:28;;;;;;;13.57;12.10;;;;;;;14.46;100.00;97777.81;6052746;29;20236;-48
2023/06/06 01:56:33;;;;;;;13.87;12.07;;;;;;;14.46;100.00;97772.47;6051412;29;20260;-48
2023/06/06 01:59:37;;;;;;;15.40;13.63;;;;;;;14.44;100.00;97761.22;6064720;29;20234;-48
2023/06/06 02:02:40;;;;;;;12.30;11.00;;;;;;;14.44;100.00;97774.63;6044707;29;20232;-50
2023/06/06 02:05:42;;;;;;;12.77;11.47;;;;;;;14.45;100.00;97772.75;6051257;29;20240;-49
2023/06/06 02:08:45;;;;;;;12.00;10.23;;;;;;;14.43;100.00;97764.13;6056459;29;20237;-48
2023/06/06 02:11:47;;;;;;;12.40;11.17;;;;;;;14.47;100.00;97767.91;6063884;29;20247;-52
2023/06/06 02:14:49;;;;;;;11.37;10.20;;;;;;;14.47;100.00;97767.91;6048310;29;20372;-48
2023/06/06 02:17:55;;;;;;;13.23;11.83;;;;;;;14.46;100.00;97772.47;6064487;29;20239;-51
2023/06/06 02:20:57;;;;;;;12.27;11.07;;;;;;;14.44;100.00;97766.56;6050310;29;20239;-50
2023/06/06 02:23:59;;;;;;;11.00;9.90;;;;;;;14.45;100.00;97762.03;6052098;29;20235;-49
2023/06/06 02:27:03;;;;;;;8.90;8.10;;;;;;;14.29;100.00;97738.94;6053898;29;20586;-50
2023/06/06 02:30:10;;;;;;;10.10;9.20;;;;;;;14.45;100.00;97762.03;6065856;29;20208;-48
2023/06/06 02:33:12;;;;;;;11.73;10.63;;;;;;;14.43;100.00;97761.47;6052166;29;20216;-48
2023/06/06 02:36:17;;;;;;;11.80;10.63;;;;;;;14.41;100.00;97767.09;6066646;29;20207;-47
2023/06/06 02:39:21;;;;;;;12.87;11.50;;;;;;;14.40;100.00;97764.69;6047676;29;20208;-51
2023/06/06 02:42:23;;;;;;;16.30;14.00;;;;;;;14.39;100.00;97763.09;6068332;29;20315;-49
2023/06/06 02:45:26;;;;;;;16.67;13.93;;;;;;;14.36;100.00;97755.56;6053287;29;20235;-48
2023/06/06 02:48:28;;;;;;;19.50;14.97;;;;;;;14.29;100.00;97752.34;6054572;29;20231;-47
2023/06/06 02:51:30;;;;;;;15.97;13.30;;;;;;;14.25;100.00;97746.69;6055455;29;20467;-48
2023/06/06 02:54:33;;;;;;;19.87;13.30;;;;;;;14.02;100.00;97728.38;6055670;29;20261;-50
2023/06/06 02:57:35;;;;;;;17.07;14.20;;;;;;;14.19;100.00;97758.47;6056191;29;20386;-46
2023/06/06 03:00:38;;;;;;;15.50;12.03;;;;;;;14.19;100.00;97753.09;6053184;29;20232;-50
2023/06/06 03:03:40;;;;;;;11.83;10.63;;;;;;;14.07;100.00;97729.22;6068714;29;20240;-48
2023/06/06 03:06:43;;;;;;;12.03;10.83;;;;;;;13.97;100.00;97728.38;6056166;29;20256;-48
2023/06/06 03:09:46;;;;;;;13.67;12.23;;;;;;;14.13;100.00;97749.59;6052479;29;20240;-49
2023/06/06 03:12:52;;;;;;;18.40;14.00;;;;;;;14.13;100.00;97754.94;6070093;29;20243;-48
2023/06/06 03:15:56;;;;;;;11.37;10.27;;;;;;;14.12;100.00;97755.22;6067624;29;20247;-48
2023/06/06 03:18:59;;;;;;;14.03;12.53;;;;;;;14.08;100.00;97754.91;6055203;29;20740;-49
2023/06/06 03:22:02;;;;;;;11.93;10.50;;;;;;;14.08;100.00;97762.16;6068741;29;20247;-47
2023/06/06 03:25:09;;;;;;;10.70;9.70;;;;;;;14.08;100.00;97768.31;6053399;29;20237;-47
2023/06/06 03:28:12;;;;;;;10.63;9.63;;;;;;;14.05;100.00;97762.69;6060169;29;20325;-50
2023/06/06 03:31:16;;;;;;;10.67;9.57;;;;;;;13.98;100.00;97752.19;6053393;29;20324;-49
2023/06/06 03:34:25;;;;;;;11.53;10.13;;;;;;;14.05;100.00;97765.38;6056647;29;20438;-47
2023/06/06 03:37:29;;;;;;;10.43;9.43;;;;;;;14.07;100.00;97764.03;6051869;29;20778;-48
2023/06/06 03:40:32;;;;;;;10.63;9.53;;;;;;;14.07;100.00;97760.56;6055218;29;20287;-48
2023/06/06 03:43:35;;;;;;;9.80;8.80;;;;;;;14.08;100.00;97759.47;6078483;29;20278;-50
2023/06/06 03:46:39;;;;;;;9.40;8.50;;;;;;;14.08;100.00;97754.13;6052354;29;20241;-50
2023/06/06 03:49:42;;;;;;;10.10;9.03;;;;;;;14.07;100.00;97741.78;6050994;29;20714;-48
2023/06/06 03:52:44;;;;;;;7.40;6.60;;;;;;;14.08;100.00;97738.84;6055491;29;20233;-49
2023/06/06 03:55:47;;;;;;;9.07;7.80;;;;;;;14.11;100.00;97738.34;6054249;29;20331;-47
2023/06/06 03:58:49;;;;;;;8.27;7.30;;;;;;;14.12;100.00;97745.28;6050967;29;20323;-51
2023/06/06 04:01:53;;;;;;;10.07;9.07;;;;;;;14.14;100.00;97758.44;6053867;29;20270;-52
2023/06/06 04:05:01;;;;;;;8.53;7.73;;;;;;;14.03;100.00;97740.72;6072346;29;20248;-49
2023/06/06 04:08:04;;;;;;;8.20;7.37;;;;;;;14.18;100.00;97762.19;6065910;29;20241;-48
2023/06/06 04:11:09;;;;;;;9.10;8.20;;;;;;;14.22;100.00;97749.09;6049970;29;20237;-51
2023/06/06 04:14:13;;;;;;;8.97;7.93;;;;;;;14.09;100.00;97737.00;6069904;29;20717;-50
2023/06/06 04:17:15;;;;;;;8.90;8.07;;;;;;;14.15;100.00;97744.78;6056912;29;20236;-49
2023/06/06 04:20:19;;;;;;;10.03;7.70;;;;;;;14.30;100.00;97757.44;6070805;29;20361;-50
2023/06/06 04:23:21;;;;;;;8.50;7.70;;;;;;;14.23;100.00;97742.66;6053999;29;20732;-49
2023/06/06 04:26:27;;;;;;;11.30;7.27;;;;;;;14.34;100.00;97766.56;6050684;29;20233;-51
2023/06/06 04:29:33;;;;;;;8.43;7.63;;;;;;;14.35;100.00;97756.63;6052670;29;20233;-48
2023/06/06 04:32:36;;;;;;;8.93;7.00;;;;;;;14.37;100.00;97752.59;6050431;29;20237;-47
2023/06/06 04:35:42;;;;;;;6.57;5.83;;;;;;;14.20;100.00;97719.88;6066249;29;20269;-49
2023/06/06 04:38:48;;;;;;;8.00;7.20;;;;;;;14.48;100.00;97755.34;6058537;29;20233;-48
2023/06/06 04:41:53;;;;;;;7.07;6.37;;;;;;;14.35;100.00;97740.56;6061655;29;20717;-50
2023/06/06 04:44:57;;;;;;;8.90;8.03;;;;;;;14.52;100.00;97756.44;6069313;29;20704;-49
2023/06/06 04:48:00;;;;;;;9.50;6.87;;;;;;;14.36;100.00;97734.13;6050510;29;20325;-48
2023/06/06 04:51:02;;;;;;;8.27;7.50;;;;;;;14.59;100.00;97762.34;6054983;29;20724;-48
2023/06/06 04:54:07;;;;;;;7.50;6.83;;;;;;;14.54;100.00;97756.97;6074033;29;20235;-50
2023/06/06 04:57:19;;;;;;;8.10;7.33;;;;;;;14.63;100.00;97753.50;6053298;29;20221;-50
2023/06/06 05:00:23;;;;;;;8.93;8.03;;;;;;;14.66;100.00;97760.22;6055786;29;20241;-50
2023/06/06 05:03:27;;;;;;;9.90;8.47;;;;;;;14.66;100.00;97755.66;6052762;29;20236;-48
2023/06/06 05:06:31;;;;;;;9.13;8.23;;;;;;;14.67;100.00;97764.50;6050775;29;20285;-49
2023/06/06 05:09:33;;;;;;;10.80;8.03;;;;;;;14.70;100.00;97762.09;6051070;29;20284;-48
2023/06/06 05:12:36;;;;;;;10.57;8.37;;;;;;;14.74;100.00;97759.69;6054295;29;20236;-47
2023/06/06 05:15:38;;;;;;;9.97;8.80;;;;;;;14.76;100.00;97765.59;6056774;29;20229;-47
2023/06/06 05:18:40;;;;;;;8.53;7.73;;;;;;;14.81;100.00;97768.28;6055292;29;20323;-49
2023/06/06 05:21:43;;;;;;;8.57;7.73;;;;;;;14.69;100.00;97736.34;6049297;29;20264;-46
2023/06/06 05:24:45;;;;;;;9.63;8.00;;;;;;;14.93;100.00;97768.84;6057166;29;20227;-46
2023/06/06 05:27:48;;;;;;;7.67;6.97;;;;;;;15.03;100.00;97768.03;6049643;29;20244;-49
2023/06/06 05:30:56;;;;;;;8.40;7.60;;;;;;;15.08;100.00;97770.72;6055498;29;20228;-50
2023/06/06 05:33:58;;;;;;;6.83;6.23;;;;;;;15.16;100.00;97780.09;6051699;29;20225;-51
2023/06/06 05:37:00;;;;;;;8.77;7.87;;;;;;;15.05;100.00;97747.09;6051171;29;20228;-49
2023/06/06 05:40:04;;;;;;;9.93;8.40;;;;;;;15.25;100.00;97766.94;6052300;29;20579;-48
2023/06/06 05:43:07;;;;;;;8.47;7.67;;;;;;;15.31;100.00;97769.34;6054835;29;20233;-49
2023/06/06 05:46:09;;;;;;;7.13;6.47;;;;;;;15.38;100.00;97769.09;6048631;29;20610;-48
2023/06/06 05:49:12;;;;;;;9.50;8.50;;;;;;;15.43;100.00;97767.19;6051557;29;20240;-48
2023/06/06 05:52:14;;;;;;;8.87;8.07;;;;;;;15.41;100.00;97779.25;6054110;29;20220;-48
2023/06/06 05:55:33;;;;;;;9.20;7.20;;;;;;;15.47;100.00;97783.56;6051441;29;20753;-48
2023/06/06 05:58:35;;;;;;;8.10;7.30;;;;;;;15.43;100.00;97766.41;6049376;29;20238;-49
2023/06/06 06:01:42;;;;;;;10.03;8.07;;;;;;;15.57;100.00;97778.19;6049606;29;20236;-48
2023/06/06 06:04:45;;;;;;;8.67;7.77;;;;;;;15.49;100.00;97765.31;6050975;29;20233;-49
2023/06/06 06:07:49;;;;;;;8.17;7.03;;;;;;;15.58;100.00;97765.56;6064795;29;20733;-48
2023/06/06 06:10:52;;;;;;;6.33;5.70;;;;;;;15.51;100.00;97743.53;6051053;29;20395;-51
2023/06/06 06:13:54;;;;;;;9.10;8.07;;;;;;;15.78;100.00;97778.16;6047520;29;20240;-52
2023/06/06 06:16:57;;;;;;;8.77;7.97;;;;;;;15.86;100.00;97780.28;6065832;29;20327;-49
2023/06/06 06:20:03;;;;;;;8.20;7.40;;;;;;;15.89;100.00;97788.59;6050095;29;20319;-48
2023/06/06 06:23:06;;;;;;;9.10;8.30;;;;;;;15.84;100.00;97774.38;6051727;29;20247;-51
2023/06/06 06:26:08;;;;;;;9.00;8.10;;;;;;;15.90;100.00;97770.59;6048044;29;20239;-48
2023/06/06 06:29:11;;;;;;;8.37;7.57;;;;;;;16.00;100.00;97779.44;6049350;29;20279;-51
2023/06/06 06:32:13;;;;;;;7.13;6.53;;;;;;;15.98;100.00;97778.91;6051631;29;20312;-49
2023/06/06 06:35:16;;;;;;;12.53;10.40;;;;;;;15.97;100.00;97769.25;6048201;29;20229;-49
2023/06/06 06:38:18;;;;;;;8.53;7.57;;;;;;;16.17;100.00;97791.75;6057334;29;20237;-50
2023/06/06 06:41:21;;;;;;;9.87;8.80;;;;;;;16.26;100.00;97792.78;6051536;29;20253;-48
2023/06/06 06:44:24;;;;;;;15.23;9.83;;;;;;;16.37;100.00;97796.22;6051693;29;20260;-51
2023/06/06 06:47:26;;;;;;;9.63;8.73;;;;;;;16.45;100.00;97803.69;6050164;29;20240;-51
2023/06/06 06:50:29;;;;;;;11.87;10.33;;;;;;;16.40;100.00;97790.28;6050654;29;20233;-52
2023/06/06 06:53:31;;;;;;;9.10;7.90;;;;;;;16.47;99.97;97801.56;6056095;29;20243;-52
2023/06/06 06:56:36;;;;;;;8.90;8.00;;;;;;;16.45;99.81;97792.94;6051335;29;20235;-51
2023/06/06 06:59:41;;;;;;;8.47;7.67;;;;;;;16.49;100.00;97804.75;6050368;29;20270;-51
2023/06/06 07:02:44;;;;;;;8.30;7.60;;;;;;;16.50;100.00;97817.13;6049836;29;20237;-49
2023/06/06 07:05:47;;;;;;;11.03;8.97;;;;;;;16.50;99.83;97807.19;6048208;29;20615;-51
2023/06/06 07:08:52;;;;;;;9.60;8.70;;;;;;;16.50;99.47;97803.69;6050208;29;20249;-51
2023/06/06 07:11:54;;;;;;;10.27;9.17;;;;;;;16.34;99.84;97781.44;6049507;29;20262;-51
2023/06/06 07:14:56;;;;;;;8.77;7.40;;;;;;;16.24;99.65;97763.47;6048816;29;20241;-49
2023/06/06 07:17:59;;;;;;;9.60;8.70;;;;;;;16.53;99.75;97808.50;6051010;29;20697;-50
2023/06/06 07:21:02;;;;;;;9.40;8.60;;;;;;;16.59;99.77;97810.09;6048130;29;20283;-52
2023/06/06 07:24:05;;;;;;;8.27;7.57;;;;;;;16.61;99.40;97816.00;6049219;29;20319;-55
2023/06/06 07:27:08;;;;;;;7.53;6.83;;;;;;;16.66;99.59;97804.41;6050820;29;20241;-55
2023/06/06 07:30:14;;;;;;;8.20;7.40;;;;;;;16.72;99.55;97808.72;6051135;29;20249;-54
2023/06/06 07:33:17;;;;;;;12.60;10.03;;;;;;;16.79;99.36;97806.50;6053407;29;20317;-54
2023/06/06 07:36:19;;;;;;;8.63;7.80;;;;;;;16.86;99.30;97808.91;6053175;29;20308;-55
2023/06/06 07:39:22;;;;;;;12.27;11.17;;;;;;;16.90;98.84;97805.38;6053340;29;20265;-55
2023/06/06 07:42:24;;;;;;;10.37;9.27;;;;;;;16.91;98.63;97806.19;6056879;29;20233;-54
2023/06/06 07:45:28;;;;;;;11.70;9.67;;;;;;;16.97;98.81;97813.13;6048715;29;20769;-53
2023/06/06 07:48:30;;;;;;;11.90;10.10;;;;;;;16.91;98.36;97801.59;6056773;29;20593;-52
2023/06/06 07:51:32;;;;;;;9.93;8.93;;;;;;;17.00;98.19;97807.19;6051094;29;20277;-53
2023/06/06 07:54:35;;;;;;;13.73;12.37;;;;;;;17.00;97.82;97808.00;6055934;29;20617;-51
2023/06/06 07:57:40;;;;;;;10.83;9.83;;;;;;;16.85;97.79;97783.88;6054386;29;20728;-52
2023/06/06 08:00:44;;;;;;;10.50;9.47;;;;;;;16.93;97.90;97794.03;6066060;29;20709;-51
2023/06/06 08:03:51;;;;;;;13.13;11.73;;;;;;;17.03;97.94;97799.34;6052145;29;20236;-52
2023/06/06 08:06:53;;;;;;;11.93;10.73;;;;;;;17.05;97.70;97799.09;6056298;29;20239;-47
2023/06/06 08:09:56;;;;;;;9.77;8.87;;;;;;;17.22;97.74;97806.75;6051243;29;20646;-47
2023/06/06 08:13:03;;;;;;;10.43;9.37;;;;;;;17.31;97.23;97796.97;6052357;29;20228;-46
2023/06/06 08:16:06;;;;;;;14.33;13.03;;;;;;;17.11;96.45;97762.16;6053368;29;20229;-50
2023/06/06 08:19:08;;;;;;;14.07;12.67;;;;;;;17.33;96.20;97800.19;6052004;29;20278;-49
2023/06/06 08:22:10;;;;;;;14.50;13.20;;;;;;;17.36;96.47;97793.44;6053362;29;20256;-49
2023/06/06 08:25:13;;;;;;;12.97;11.67;;;;;;;17.40;96.35;97798.00;6054141;29;20464;-48
2023/06/06 08:28:15;;;;;;;14.77;13.37;;;;;;;17.48;96.18;97799.25;6051721;29;20241;-49
2023/06/06 08:31:19;;;;;;;15.53;13.97;;;;;;;17.58;96.26;97801.03;6051894;29;20736;-48
2023/06/06 08:34:22;;;;;;;13.80;12.60;;;;;;;17.63;95.78;97799.09;6050915;29;20617;-47
2023/06/06 08:37:24;;;;;;;13.93;12.63;;;;;;;17.51;91.63;97804.88;6053240;29;20593;-48
2023/06/06 08:40:27;;;;;;;12.53;11.27;;;;;;;17.51;88.71;97794.09;6049316;29;20244;-48
2023/06/06 08:43:36;;;;;;;13.77;12.37;;;;;;;17.63;90.68;97803.69;6058227;29;20237;-47
2023/06/06 08:46:40;;;;;;;12.83;11.33;;;;;;;17.59;88.80;97806.16;6049570;29;20233;-48
2023/06/06 08:49:43;;;;;;;12.73;11.30;;;;;;;17.64;88.75;97813.41;6051302;29;20237;-48
2023/06/06 08:52:48;;;;;;;14.67;13.20;;;;;;;17.68;90.14;97801.75;6060040;29;20695;-45
2023/06/06 08:55:56;;;;;;;11.80;10.07;;;;;;;17.62;90.23;97807.47;6049502;29;20334;-44
2023/06/06 08:58:59;;;;;;;13.27;11.60;;;;;;;17.37;90.34;97781.59;6053433;29;20251;-45
2023/06/06 09:02:01;;;;;;;13.70;12.40;;;;;;;17.45;90.56;97814.09;6064344;29;20232;-46
2023/06/06 09:05:05;;;;;;;14.90;13.37;;;;;;;17.37;89.46;97817.38;6066557;29;20240;-52
2023/06/06 09:08:07;;;;;;;14.10;12.70;;;;;;;17.36;89.33;97821.19;6064183;29;20299;-45
2023/06/06 09:11:10;;;;;;;15.97;12.77;;;;;;;17.14;89.80;97781.25;6053808;29;20260;-47
2023/06/06 09:14:13;;;;;;;13.93;12.53;;;;;;;17.16;89.65;97784.44;6051544;29;20670;-49
2023/06/06 09:17:16;;;;;;;15.97;13.90;;;;;;;17.28;89.40;97813.69;6051214;29;20264;-48
2023/06/06 09:20:18;;;;;;;15.13;13.50;;;;;;;17.25;89.53;97814.28;6052658;29;20327;-47
2023/06/06 09:23:21;;;;;;;16.37;14.23;;;;;;;17.18;89.63;97819.97;6050560;29;20243;-50
2023/06/06 09:26:23;;;;;;;17.20;15.10;;;;;;;17.11;88.61;97824.88;6052892;29;20300;-47
2023/06/06 09:29:26;;;;;;;13.70;11.70;;;;;;;17.10;88.53;97817.88;6051771;29;20247;-51
2023/06/06 09:32:29;;;;;;;13.70;10.33;;;;;;;17.01;89.03;97814.97;6049742;29;20319;-45
2023/06/06 09:35:37;;;;;;;13.67;11.47;;;;;;;16.96;90.86;97815.00;6052322;29;20324;-45
2023/06/06 09:38:39;;;;;;;13.00;9.77;;;;;;;16.81;90.49;97823.19;6052061;29;20800;-46
2023/06/06 09:41:46;;;;;;;11.90;10.80;;;;;;;16.75;91.50;97824.31;6054413;29;20228;-46
2023/06/06 09:44:48;;;;;;;12.33;10.97;;;;;;;16.68;92.20;97823.75;6051515;29;20241;-49
2023/06/06 09:47:51;;;;;;;11.70;10.60;;;;;;;16.41;92.72;97792.72;6046886;29;20741;-46
2023/06/06 09:50:54;;;;;;;11.10;10.10;;;;;;;16.35;93.00;97799.16;6052312;29;20237;-45
2023/06/06 09:54:00;;;;;;;11.57;10.47;;;;;;;16.33;93.66;97814.78;6056165;29;20232;-45
2023/06/06 09:57:13;;;;;;;12.93;11.23;;;;;;;16.22;94.53;97818.59;6051424;29;20240;-46
2023/06/06 10:00:18;;;;;;;16.93;11.80;;;;;;;16.14;95.04;97819.16;6051956;29;20705;-45
2023/06/06 10:03:22;;;;;;;11.37;10.37;;;;;;;16.11;95.24;97820.53;6050845;29;20220;-45
2023/06/06 10:06:33;;;;;;;10.47;9.47;;;;;;;16.15;95.57;97821.56;6052920;29;20232;-46
2023/06/06 10:09:36;;;;;;;10.53;9.03;;;;;;;16.20;95.67;97823.44;6053588;29;20635;-45
2023/06/06 10:12:39;;;;;;;13.70;9.30;;;;;;;16.24;95.64;97825.31;6050954;29;20248;-47
2023/06/06 10:15:43;;;;;;;10.17;9.27;;;;;;;16.28;95.86;97820.19;6054754;29;20237;-47
2023/06/06 10:18:46;;;;;;;11.00;9.63;;;;;;;16.34;96.28;97815.59;6052457;29;20236;-47
2023/06/06 10:21:51;;;;;;;8.90;8.10;;;;;;;16.39;96.08;97815.56;6051438;29;20801;-46
2023/06/06 10:24:54;;;;;;;10.53;9.43;;;;;;;16.47;96.31;97825.75;6053537;29;20731;-46
2023/06/06 10:28:05;;;;;;;10.20;9.30;;;;;;;16.51;96.53;97821.44;6052282;29;20245;-50
2023/06/06 10:31:16;;;;;;;9.27;8.37;;;;;;;16.58;96.44;97824.63;6054805;29;20240;-46
2023/06/06 10:34:23;;;;;;;9.83;8.93;;;;;;;16.65;96.46;97819.75;6053978;29;20335;-46
2023/06/06 10:37:26;;;;;;;8.73;7.97;;;;;;;16.70;96.74;97810.84;6052174;29;20672;-48
2023/06/06 10:40:41;;;;;;;8.77;8.00;;;;;;;16.84;96.78;97814.53;6052786;29;20240;-48
2023/06/06 10:43:46;;;;;;;10.20;9.20;;;;;;;16.95;96.83;97815.31;6052014;29;20652;-47
2023/06/06 10:46:49;;;;;;;10.50;9.53;;;;;;;17.06;96.79;97806.06;6053683;29;20321;-47
2023/06/06 10:50:11;;;;;;;9.30;8.50;;;;;;;17.14;96.49;97810.88;6057385;29;20248;-47
2023/06/06 10:53:17;;;;;;;8.90;8.20;;;;;;;17.22;96.56;97812.13;6051944;29;20240;-46
2023/06/06 10:56:33;;;;;;;11.03;10.03;;;;;;;17.15;96.28;97790.94;6055717;29;20239;-49
2023/06/06 10:59:48;;;;;;;9.83;8.97;;;;;;;17.34;96.25;97799.13;6060677;29;20709;-47
2023/06/06 11:03:13;;;;;;;11.93;10.70;;;;;;;17.29;96.08;97780.31;6070011;29;20320;-47
2023/06/06 11:06:23;;;;;;;11.27;10.10;;;;;;;17.38;95.77;97786.69;6040090;29;20233;-49
2023/06/06 11:09:33;;;;;;;11.67;10.53;;;;;;;17.41;95.49;97779.94;6057969;29;20241;-48
2023/06/06 11:12:38;;;;;;;11.87;10.77;;;;;;;17.53;95.44;97804.59;6055847;29;20236;-48
2023/06/06 11:15:56;;;;;;;12.97;11.63;;;;;;;17.54;96.19;97808.91;6063195;29;20314;-47
2023/06/06 11:19:09;;;;;;;13.70;11.73;;;;;;;17.54;96.24;97803.53;6053817;29;20236;-48
2023/06/06 11:25:50;;;;;;;14.50;13.10;;;;;;;17.72;96.15;97793.91;5809548;23;20586;-50
2023/06/06 11:28:59;;;;;;;14.73;13.23;;;;;;;17.85;95.93;97803.25;6070598;29;20244;-47
2023/06/06 11:32:03;;;;;;;12.90;11.70;;;;;;;17.96;95.49;97796.66;6052706;29;20239;-49
2023/06/06 11:35:08;;;;;;;12.43;11.30;;;;;;;18.04;93.97;97802.22;6057396;29;20244;-48
2023/06/06 11:38:11;;;;;;;14.07;12.23;;;;;;;18.17;93.89;97795.31;6053603;29;20285;-47
2023/06/06 11:41:13;;;;;;;11.27;10.17;;;;;;;18.08;93.38;97763.88;6059212;29;20269;-49
2023/06/06 11:44:17;;;;;;;10.17;9.20;;;;;;;18.04;93.53;97747.50;6052880;29;20236;-51
2023/06/06 11:47:29;;;;;;;9.97;8.97;;;;;;;18.21;92.98;97769.38;6049485;29;20260;-51
2023/06/06 11:50:32;;;;;;;11.13;10.10;;;;;;;18.24;93.26;97766.13;6049029;29;20723;-47
2023/06/06 11:53:34;;;;;;;11.47;10.47;;;;;;;18.26;92.99;97765.81;6055710;29;20239;-47
2023/06/06 11:56:37;;;;;;;10.47;9.47;;;;;;;18.38;92.56;97784.31;6053272;29;20236;-50
2023/06/06 11:59:39;;;;;;;11.60;10.40;;;;;;;18.39;93.10;97786.69;6050136;29;20248;-47
2023/06/06 12:02:48;;;;;;;11.83;10.63;;;;;;;18.36;93.23;97786.47;6054298;29;20236;-49
2023/06/06 12:05:59;;;;;;;11.53;10.53;;;;;;;18.41;93.55;97784.50;6051658;29;20244;-48
2023/06/06 12:09:02;;;;;;;13.97;12.53;;;;;;;18.39;93.71;97778.59;6050841;29;20252;-51
2023/06/06 12:12:05;;;;;;;13.27;11.97;;;;;;;18.43;93.97;97770.75;6058171;29;20234;-51
2023/06/06 12:15:08;;;;;;;13.47;12.20;;;;;;;18.36;94.08;97759.50;6052894;29;20452;-48
2023/06/06 12:18:10;;;;;;;13.97;12.50;;;;;;;18.46;94.38;97780.94;6053000;29;20229;-48
2023/06/06 12:21:18;;;;;;;12.17;10.87;;;;;;;18.47;94.13;97775.28;6050803;29;20285;-50
2023/06/06 12:24:29;;;;;;;14.50;13.03;;;;;;;18.37;94.51;97758.41;6051100;29;21765;-50
2023/06/06 12:27:36;;;;;;;14.30;12.73;;;;;;;18.46;95.22;97775.53;6049275;29;20734;-51
2023/06/06 12:30:44;;;;;;;15.73;10.97;;;;;;;18.29;95.06;97749.88;6047967;29;20232;-48
2023/06/06 12:33:46;;;;;;;12.13;11.00;;;;;;;18.44;95.14;97775.84;6054496;29;20229;-48
2023/06/06 12:36:51;;;;;;;12.57;11.37;;;;;;;18.28;95.10;97750.19;6051900;29;20236;-48
2023/06/06 12:39:54;;;;;;;10.43;9.53;;;;;;;18.24;95.37;97741.84;6057260;29;20235;-48
2023/06/06 12:43:03;;;;;;;9.10;8.30;;;;;;;18.49;94.65;97774.97;6060572;29;20277;-49
2023/06/06 12:46:05;;;;;;;8.53;7.83;;;;;;;18.44;94.87;97767.75;6046456;29;20237;-50
2023/06/06 12:49:08;;;;;;;8.23;7.53;;;;;;;18.61;94.34;97772.63;6052878;29;20249;-51
2023/06/06 12:52:12;;;;;;;9.40;8.60;;;;;;;18.53;94.27;97766.00;6053230;29;20232;-50
2023/06/06 12:55:15;;;;;;;9.37;8.50;;;;;;;18.66;94.08;97782.56;6051362;29;20837;-49
2023/06/06 12:58:17;;;;;;;13.87;12.53;;;;;;;18.60;94.03;97776.44;6051248;29;20600;-48
2023/06/06 13:01:19;;;;;;;8.57;7.77;;;;;;;18.59;93.99;97772.13;6047713;29;20603;-51
2023/06/06 13:04:25;;;;;;;8.23;7.43;;;;;;;18.36;94.16;97732.53;6066540;29;20242;-49
2023/06/06 13:07:28;;;;;;;7.77;7.17;;;;;;;18.69;93.58;97773.91;6051734;29;20607;-50
2023/06/06 13:10:30;;;;;;;7.80;7.10;;;;;;;18.64;92.92;97763.97;6050203;29;20308;-48
2023/06/06 13:13:33;;;;;;;8.17;7.37;;;;;;;18.73;93.04;97775.75;6054095;29;20244;-51
2023/06/06 13:16:36;;;;;;;7.87;7.17;;;;;;;18.70;93.04;97773.63;6050283;29;20244;-48
2023/06/06 13:19:43;;;;;;;6.17;5.67;;;;;;;18.75;92.83;97764.66;6051296;29;20543;-48
2023/06/06 13:22:45;;;;;;;6.03;5.53;;;;;;;18.87;91.89;97766.91;6048558;29;20233;-50
2023/06/06 13:25:51;;;;;;;7.13;6.43;;;;;;;18.93;91.42;97763.03;6047804;29;20249;-51
2023/06/06 13:28:54;;;;;;;6.63;5.70;;;;;;;18.93;91.73;97763.03;6061109;29;20249;-47
2023/06/06 13:31:56;;;;;;;6.23;5.63;;;;;;;18.86;91.04;97749.09;6050832;29;20704;-49
2023/06/06 13:34:59;;;;;;;5.57;5.17;;;;;;;18.78;90.56;97753.28;6064855;29;20240;-49
2023/06/06 13:38:01;;;;;;;6.07;5.57;;;;;;;18.67;90.49;97749.06;6046755;29;20225;-49
2023/06/06 13:41:04;;;;;;;5.67;5.17;;;;;;;18.59;90.67;97755.94;6059305;29;20244;-49
2023/06/06 13:44:06;;;;;;;6.13;5.60;;;;;;;18.39;90.77;97730.06;6049839;29;20454;-51
2023/06/06 13:47:08;;;;;;;7.93;5.53;;;;;;;18.37;91.16;97739.50;6049820;29;20365;-49
2023/06/06 13:50:11;;;;;;;5.83;5.30;;;;;;;18.32;91.25;97743.09;6048743;29;20233;-50
2023/06/06 13:53:14;;;;;;;6.13;5.63;;;;;;;18.23;91.87;97748.34;6049301;29;20369;-48
2023/06/06 13:56:17;;;;;;;6.23;5.67;;;;;;;18.20;91.76;97754.31;6049726;29;20920;-48
2023/06/06 13:59:20;;;;;;;6.93;6.23;;;;;;;18.12;91.49;97744.16;6062490;29;20248;-47
2023/06/06 14:02:23;;;;;;;9.77;6.03;;;;;;;18.00;92.40;97746.47;6052784;29;20387;-48
2023/06/06 14:05:26;;;;;;;6.20;5.70;;;;;;;17.88;92.56;97743.38;6046476;29;20268;-50
2023/06/06 14:08:30;;;;;;;6.47;5.80;;;;;;;17.78;92.44;97749.66;6050345;29;20746;-51
2023/06/06 14:11:33;;;;;;;8.40;5.77;;;;;;;17.70;93.08;97753.78;6049213;29;20319;-49
2023/06/06 14:14:36;;;;;;;6.07;5.50;;;;;;;17.66;93.38;97758.13;6051234;29;20898;-50
2023/06/06 14:17:38;;;;;;;5.63;5.13;;;;;;;17.55;93.61;97743.16;6049018;29;20237;-50